Time;durP1;ratioP1;P1;durP2;ratioP2;P2;SDS_P1;SDS_P2;PMS_P1;PMS_P2;Temp;Humidity;BMP_temperature;BMP_pressure;BME280_temperature;BME280_humidity;BME280_pressure;Samples;Min_cycle;Max_cycle;Signal;HPM_P1;HPM_P2
2023/01/17 01:43:59;;;;;;;;;;;3.40;99.90;;;;;;4952819;28;19989;-86
2023/01/17 01:49:33;;;;;;;;;;;3.40;99.90;;;;;;4953218;29;19997;-86
2023/01/17 01:52:27;;;;;;;;;;;3.40;99.90;;;;;;4937403;29;19922;-86
2023/01/17 01:54:57;;;;;;;;;;;3.40;99.90;;;;;;4936666;29;19969;-86
2023/01/17 02:06:55;;;;;;;;;;;;;;;;;;;;;
2023/01/17 02:12:24;;;;;;;;;;;3.40;99.90;;;;;;4914058;29;19947;-87
2023/01/17 02:21:04;;;;;;;;;;;3.50;99.90;;;;;;4914714;29;19976;-87
2023/01/17 02:23:48;;;;;;;;;;;3.60;99.90;;;;;;4953100;28;19915;-87
2023/01/17 02:26:33;;;;;;;;;;;3.60;99.90;;;;;;4955820;28;19918;-86
2023/01/17 02:29:17;;;;;;;;;;;3.60;99.90;;;;;;4974267;28;20322;-87
2023/01/17 02:31:48;;;;;;;;;;;3.60;99.90;;;;;;5033057;28;20385;-86
2023/01/17 02:34:20;;;;;;;;;;;3.60;99.90;;;;;;5032723;28;19940;-87
2023/01/17 02:37:12;;;;;;;;;;;3.60;99.90;;;;;;5019006;28;19916;-87
2023/01/17 02:40:01;;;;;;;;;;;3.50;99.90;;;;;;4981307;28;19921;-87
2023/01/17 02:42:39;;;;;;;;;;;3.50;99.90;;;;;;5016023;28;19915;-87
2023/01/17 02:45:06;;;;;;;;;;;3.40;99.90;;;;;;5027103;22;19925;-89
2023/01/17 02:47:32;;;;;;;;;;;3.50;99.90;;;;;;5011576;28;19937;-88
2023/01/17 02:50:19;;;;;;;;;;;3.40;99.90;;;;;;5012410;28;19910;-87
2023/01/17 02:53:03;;;;;;;;;;;3.40;99.90;;;;;;5011311;28;19910;-87
2023/01/17 02:55:40;;;;;;;;;;;3.30;99.90;;;;;;5012755;28;20019;-89
2023/01/17 02:58:06;;;;;;;;;;;3.40;99.90;;;;;;5014866;28;19916;-87
2023/01/17 03:00:41;;;;;;;;;;;3.40;99.90;;;;;;5015279;28;19913;-87
2023/01/17 03:03:26;;;;;;;;;;;3.40;99.90;;;;;;5014879;28;19940;-88
2023/01/17 03:06:10;;;;;;;;;;;3.40;99.90;;;;;;5021207;28;19909;-88
2023/01/17 03:08:47;;;;;;;;;;;3.40;99.90;;;;;;5034890;28;20286;-88
2023/01/17 03:11:22;;;;;;;;;;;3.40;99.90;;;;;;5034727;28;19920;-88
2023/01/17 03:13:47;;;;;;;;;;;3.30;99.90;;;;;;5021314;28;19957;-88
2023/01/17 03:16:17;;;;;;;;;;;3.30;99.90;;;;;;5014689;28;20006;-90
2023/01/17 03:18:46;;;;;;;;;;;3.30;99.90;;;;;;5014888;28;19929;-88
2023/01/17 03:21:12;;;;;;;;;;;3.30;99.90;;;;;;5014695;28;19916;-89
2023/01/17 03:23:37;;;;;;;;;;;3.30;99.90;;;;;;5014810;28;19909;-89
2023/01/17 03:26:03;;;;;;;;;;;3.30;99.90;;;;;;5014732;28;19914;-89
2023/01/17 03:28:37;;;;;;;;;;;3.30;99.90;;;;;;5014718;28;19984;-88
2023/01/17 03:31:02;;;;;;;;;;;3.30;99.90;;;;;;5014523;28;19996;-88
2023/01/17 03:33:28;;;;;;;;;;;3.40;99.90;;;;;;5014588;28;20379;-89
2023/01/17 03:35:56;;;;;;;;;;;3.40;99.90;;;;;;5014583;28;19921;-89
2023/01/17 03:38:39;;;;;;;;;;;3.40;99.90;;;;;;5014835;28;19917;-88
2023/01/17 03:41:04;;;;;;;;;;;3.40;99.90;;;;;;5014237;28;20008;-89
2023/01/17 03:43:37;;;;;;;;;;;3.40;99.90;;;;;;5014430;28;19949;-89
2023/01/17 03:46:38;;;;;;;;;;;3.40;99.90;;;;;;5014082;28;19921;-88
2023/01/17 03:49:04;;;;;;;;;;;3.30;99.90;;;;;;5014607;28;19913;-88
2023/01/17 03:51:32;;;;;;;;;;;3.40;99.90;;;;;;5014082;28;19910;-88
2023/01/17 03:54:00;;;;;;;;;;;3.30;99.90;;;;;;5014301;28;19909;-88
2023/01/17 03:56:26;;;;;;;;;;;3.40;99.90;;;;;;5013870;28;20351;-88
2023/01/17 03:58:52;;;;;;;;;;;3.40;99.90;;;;;;5014162;28;20009;-89
2023/01/17 04:01:18;;;;;;;;;;;3.40;99.90;;;;;;5013759;28;19976;-90
2023/01/17 04:03:43;;;;;;;;;;;3.40;99.90;;;;;;5013965;28;19909;-87
2023/01/17 04:06:09;;;;;;;;;;;3.40;99.90;;;;;;5015234;28;19932;-89
2023/01/17 04:08:43;;;;;;;;;;;3.40;99.90;;;;;;5013646;28;19917;-88
2023/01/17 04:11:09;;;;;;;;;;;3.30;99.90;;;;;;5015196;28;19917;-89
2023/01/17 04:13:35;;;;;;;;;;;3.30;99.90;;;;;;5014724;28;19909;-87
2023/01/17 04:16:00;;;;;;;;;;;3.30;99.90;;;;;;5014400;28;20382;-87
2023/01/17 04:18:26;;;;;;;;;;;3.30;99.90;;;;;;5013660;28;19909;-89
2023/01/17 04:20:52;;;;;;;;;;;3.40;99.90;;;;;;5013633;28;19909;-88
2023/01/17 04:23:17;;;;;;;;;;;3.30;99.90;;;;;;5014805;28;19917;-89
2023/01/17 04:25:43;;;;;;;;;;;3.20;99.90;;;;;;5013486;28;19956;-89
2023/01/17 04:28:20;;;;;;;;;;;3.20;99.90;;;;;;5013576;28;20279;-88
2023/01/17 04:30:45;;;;;;;;;;;3.30;99.90;;;;;;5013399;28;19910;-89
2023/01/17 04:33:11;;;;;;;;;;;3.30;99.90;;;;;;5013503;28;19910;-89
2023/01/17 04:35:36;;;;;;;;;;;3.30;99.90;;;;;;5014406;28;19913;-88
2023/01/17 04:38:02;;;;;;;;;;;3.30;99.90;;;;;;5013908;28;19913;-89
2023/01/17 04:40:28;;;;;;;;;;;3.40;99.90;;;;;;5013381;28;19916;-88
2023/01/17 04:42:54;;;;;;;;;;;3.20;99.90;;;;;;5013068;28;19913;-88
2023/01/17 04:45:21;;;;;;;;;;;3.10;99.90;;;;;;5012833;28;20003;-89
2023/01/17 04:47:47;;;;;;;;;;;3.10;99.90;;;;;;5013284;28;19910;-87
2023/01/17 04:50:12;;;;;;;;;;;3.00;99.90;;;;;;5013110;28;20436;-88
2023/01/17 04:52:38;;;;;;;;;;;3.10;99.90;;;;;;5012919;28;20513;-88
2023/01/17 04:55:07;;;;;;;;;;;3.20;99.90;;;;;;5013215;28;19913;-89
2023/01/17 04:57:32;;;;;;;;;;;3.10;99.90;;;;;;5012954;28;19918;-89
2023/01/17 05:00:04;;;;;;;;;;;3.10;99.90;;;;;;5013094;28;19920;-88
2023/01/17 05:02:32;;;;;;;;;;;3.10;99.90;;;;;;5013144;28;19932;-87
2023/01/17 05:04:58;;;;;;;;;;;3.10;99.90;;;;;;5014008;28;19956;-87
2023/01/17 05:07:26;;;;;;;;;;;3.00;99.90;;;;;;5013627;28;19909;-87
2023/01/17 05:09:51;;;;;;;;;;;3.00;99.90;;;;;;5012808;28;19909;-88
2023/01/17 05:12:17;;;;;;;;;;;3.00;99.90;;;;;;5012667;28;19944;-88
2023/01/17 05:14:42;;;;;;;;;;;3.00;99.90;;;;;;5012827;28;19921;-88
2023/01/17 05:17:09;;;;;;;;;;;3.10;99.90;;;;;;5013244;28;19983;-88
2023/01/17 05:19:35;;;;;;;;;;;3.10;99.90;;;;;;5012323;28;19930;-88
2023/01/17 05:22:13;;;;;;;;;;;3.10;99.90;;;;;;5012759;28;20295;-88
2023/01/17 05:24:40;;;;;;;;;;;3.00;99.90;;;;;;5012656;28;19910;-88
2023/01/17 05:27:06;;;;;;;;;;;3.10;99.90;;;;;;5013219;28;19917;-87
2023/01/17 05:29:31;;;;;;;;;;;3.10;99.90;;;;;;5013077;28;19910;-87
2023/01/17 05:31:59;;;;;;;;;;;3.10;99.90;;;;;;5012229;28;20314;-88
2023/01/17 05:34:25;;;;;;;;;;;3.10;99.90;;;;;;5012292;28;19997;-88
2023/01/17 05:36:50;;;;;;;;;;;3.10;99.90;;;;;;5012416;28;20000;-89
2023/01/17 05:39:16;;;;;;;;;;;3.10;99.90;;;;;;5012438;28;19909;-88
2023/01/17 05:41:41;;;;;;;;;;;3.10;99.90;;;;;;5012220;28;20268;-88
2023/01/17 05:44:07;;;;;;;;;;;3.10;99.90;;;;;;5011996;28;19910;-88
2023/01/17 05:46:32;;;;;;;;;;;3.10;99.90;;;;;;5012471;28;19925;-89
2023/01/17 05:49:01;;;;;;;;;;;3.10;99.90;;;;;;5012250;28;19968;-88
2023/01/17 05:51:28;;;;;;;;;;;3.10;99.90;;;;;;5012245;28;19949;-88
2023/01/17 05:53:54;;;;;;;;;;;3.00;99.90;;;;;;5012352;28;19949;-88
2023/01/17 05:56:32;;;;;;;;;;;3.00;99.90;;;;;;5012240;28;19952;-88
2023/01/17 05:58:57;;;;;;;;;;;3.00;99.90;;;;;;5012289;28;20004;-88
2023/01/17 06:01:23;;;;;;;;;;;2.90;99.90;;;;;;5008960;28;20419;-88
2023/01/17 06:03:49;;;;;;;;;;;2.80;99.90;;;;;;5005244;28;19909;-87
2023/01/17 06:06:17;;;;;;;;;;;2.80;99.90;;;;;;5032369;28;20378;-87
2023/01/17 06:08:43;;;;;;;;;;;2.80;99.90;;;;;;5032586;28;20390;-87
2023/01/17 06:11:08;;;;;;;;;;;2.80;99.90;;;;;;5032361;28;19909;-88
2023/01/17 06:13:34;;;;;;;;;;;2.70;99.90;;;;;;5031948;28;19916;-88
2023/01/17 06:16:01;;;;;;;;;;;2.70;99.90;;;;;;5031749;28;20019;-88
2023/01/17 06:18:27;;;;;;;;;;;2.70;99.90;;;;;;5031805;28;20298;-88
2023/01/17 06:20:53;;;;;;;;;;;2.60;99.90;;;;;;5031800;28;20012;-89
2023/01/17 06:23:21;;;;;;;;;;;2.50;99.90;;;;;;5031579;28;19963;-88
2023/01/17 06:25:47;;;;;;;;;;;2.50;99.90;;;;;;5031462;28;19963;-89
2023/01/17 06:28:13;;;;;;;;;;;2.50;99.90;;;;;;5031674;28;19913;-89
2023/01/17 06:30:39;;;;;;;;;;;2.40;99.90;;;;;;5033571;28;19909;-88
2023/01/17 06:33:05;;;;;;;;;;;2.50;99.90;;;;;;5035500;28;20382;-88
2023/01/17 06:35:31;;;;;;;;;;;2.50;99.90;;;;;;5035383;28;19913;-89
2023/01/17 06:37:58;;;;;;;;;;;2.50;99.90;;;;;;5035567;28;19916;-88
2023/01/17 06:40:24;;;;;;;;;;;2.40;99.90;;;;;;5035598;28;19916;-88
2023/01/17 06:42:50;;;;;;;;;;;2.40;99.90;;;;;;5035261;28;20405;-87
2023/01/17 06:45:16;;;;;;;;;;;2.30;99.90;;;;;;5035174;28;20286;-87
2023/01/17 06:47:41;;;;;;;;;;;2.40;99.90;;;;;;5035405;28;19909;-89
2023/01/17 06:50:09;;;;;;;;;;;2.40;99.90;;;;;;5035566;28;19932;-89
2023/01/17 06:52:34;;;;;;;;;;;2.30;99.90;;;;;;5036435;28;20274;-88
2023/01/17 06:55:00;;;;;;;;;;;2.40;99.90;;;;;;5035201;28;19918;-88
2023/01/17 06:57:26;;;;;;;;;;;2.40;99.90;;;;;;5035324;28;19932;-89
2023/01/17 06:59:51;;;;;;;;;;;2.40;99.90;;;;;;5035189;28;19909;-88
2023/01/17 07:02:17;;;;;;;;;;;2.40;99.90;;;;;;5034845;28;19916;-89
2023/01/17 07:04:42;;;;;;;;;;;2.40;99.90;;;;;;5034933;28;19913;-89
2023/01/17 07:07:08;;;;;;;;;;;2.40;99.90;;;;;;5035147;28;20298;-89
2023/01/17 07:09:33;;;;;;;;;;;2.50;99.90;;;;;;5035041;28;19999;-89
2023/01/17 07:12:00;;;;;;;;;;;2.50;99.90;;;;;;5036242;28;19956;-87
2023/01/17 07:14:27;;;;;;;;;;;2.50;99.90;;;;;;5035056;28;19913;-87
2023/01/17 07:16:52;;;;;;;;;;;2.60;99.90;;;;;;5035279;28;20004;-87
2023/01/17 07:19:18;;;;;;;;;;;2.70;99.90;;;;;;5035278;28;19913;-87
2023/01/17 07:21:43;;;;;;;;;;;2.70;99.90;;;;;;5034752;28;19916;-88
2023/01/17 07:24:09;;;;;;;;;;;2.70;99.90;;;;;;5034771;28;20371;-88
2023/01/17 07:26:36;;;;;;;;;;;2.70;99.90;;;;;;5036442;28;20378;-88
2023/01/17 07:29:03;;;;;;;;;;;2.80;99.90;;;;;;5034729;28;19909;-88
2023/01/17 07:31:29;;;;;;;;;;;2.80;99.90;;;;;;5034894;28;19909;-88
2023/01/17 07:33:55;;;;;;;;;;;2.90;99.90;;;;;;5034889;28;20255;-88
2023/01/17 07:36:20;;;;;;;;;;;3.00;99.90;;;;;;5034811;28;19913;-87
2023/01/17 07:38:46;;;;;;;;;;;3.00;99.90;;;;;;5034871;28;19959;-87
2023/01/17 07:41:11;;;;;;;;;;;3.00;99.90;;;;;;5034361;28;20324;-89
2023/01/17 07:43:37;;;;;;;;;;;3.10;99.90;;;;;;5034053;28;19956;-87
2023/01/17 07:46:04;;;;;;;;;;;3.10;99.90;;;;;;5034283;28;19964;-87
2023/01/17 07:48:30;;;;;;;;;;;3.10;99.90;;;;;;5034388;28;19909;-87
2023/01/17 07:50:56;;;;;;;;;;;3.20;99.90;;;;;;5034359;28;19915;-89
2023/01/17 07:53:23;;;;;;;;;;;3.20;99.90;;;;;;5034358;28;19909;-88
2023/01/17 07:55:48;;;;;;;;;;;3.20;99.90;;;;;;5034624;28;19913;-87
2023/01/17 07:58:14;;;;;;;;;;;3.30;99.90;;;;;;5034861;28;20420;-87
2023/01/17 08:00:43;;;;;;;;;;;3.30;99.90;;;;;;5051218;28;19916;-91
2023/01/17 08:03:11;;;;;;;;;;;3.30;99.90;;;;;;5051858;28;19917;-88
2023/01/17 08:05:36;;;;;;;;;;;3.30;99.90;;;;;;5036045;28;20363;-88
2023/01/17 08:08:01;;;;;;;;;;;3.30;99.90;;;;;;5036104;28;19956;-90
2023/01/17 08:10:27;;;;;;;;;;;3.30;99.90;;;;;;5035372;28;20295;-91
2023/01/17 08:12:54;;;;;;;;;;;3.20;99.90;;;;;;5034528;28;19940;-88
2023/01/17 08:15:19;;;;;;;;;;;3.20;99.90;;;;;;5033977;28;19917;-87
2023/01/17 08:17:45;;;;;;;;;;;3.10;99.90;;;;;;5034077;28;20004;-87
2023/01/17 08:20:11;;;;;;;;;;;3.00;99.90;;;;;;5034002;28;20332;-88
2023/01/17 08:22:37;;;;;;;;;;;3.00;99.90;;;;;;5034096;28;20032;-88
2023/01/17 08:25:02;;;;;;;;;;;3.00;99.90;;;;;;5033771;28;20278;-89
2023/01/17 08:27:28;;;;;;;;;;;3.00;99.90;;;;;;5033907;28;19913;-90
2023/01/17 08:29:53;;;;;;;;;;;3.00;99.90;;;;;;5033715;28;19924;-91
2023/01/17 08:32:20;;;;;;;;;;;3.00;99.90;;;;;;5033520;28;19916;-90
2023/01/17 08:34:46;;;;;;;;;;;3.00;99.90;;;;;;5033441;28;19913;-90
2023/01/17 08:37:11;;;;;;;;;;;3.00;99.90;;;;;;5033836;28;19910;-90
2023/01/17 08:39:37;;;;;;;;;;;3.10;99.90;;;;;;5034315;28;19909;-90
2023/01/17 08:42:02;;;;;;;;;;;3.10;99.90;;;;;;5034392;28;19956;-91
2023/01/17 08:52:07;;;;;;;;;;;3.40;99.90;;;;;;5032926;28;19933;-90
2023/01/17 08:54:32;;;;;;;;;;;3.40;99.90;;;;;;5033874;28;19909;-90
2023/01/17 08:56:57;;;;;;;;;;;3.50;99.90;;;;;;5017372;28;20362;-90
2023/01/17 08:59:23;;;;;;;;;;;3.50;99.90;;;;;;5016526;28;19910;-90
2023/01/17 09:01:51;;;;;;;;;;;3.50;99.90;;;;;;5016432;28;19958;-88
2023/01/17 09:04:16;;;;;;;;;;;3.60;99.90;;;;;;5016538;28;19942;-88
2023/01/17 09:06:44;;;;;;;;;;;3.60;99.90;;;;;;5016279;28;19909;-88
2023/01/17 09:09:12;;;;;;;;;;;3.60;99.90;;;;;;5016305;28;19909;-89
2023/01/17 09:11:38;;;;;;;;;;;3.70;99.90;;;;;;5016270;28;19909;-88
2023/01/17 09:14:03;;;;;;;;;;;3.70;99.90;;;;;;5012698;28;20310;-90
2023/01/17 09:16:30;;;;;;;;;;;3.70;99.90;;;;;;5016113;28;19913;-89
2023/01/17 09:18:56;;;;;;;;;;;3.70;99.90;;;;;;5016160;28;19909;-89
2023/01/17 09:21:22;;;;;;;;;;;3.80;99.90;;;;;;5016019;28;19913;-89
2023/01/17 09:23:47;;;;;;;;;;;3.90;99.90;;;;;;5016069;28;19956;-89
2023/01/17 09:26:16;;;;;;;;;;;4.10;99.90;;;;;;5015905;28;20389;-89
2023/01/17 09:28:42;;;;;;;;;;;4.20;99.90;;;;;;5016096;28;20458;-89
2023/01/17 09:31:07;;;;;;;;;;;4.40;99.90;;;;;;5015882;28;19994;-89
2023/01/17 09:33:33;;;;;;;;;;;4.60;99.90;;;;;;5016099;28;20284;-87
2023/01/17 09:36:04;;;;;;;;;;;4.80;99.90;;;;;;5015828;28;19913;-85
2023/01/17 09:38:38;;;;;;;;;;;4.90;99.90;;;;;;5016505;28;19915;-86
2023/01/17 09:41:20;;;;;;;;;;;5.10;99.90;;;;;;5015590;28;19967;-87
2023/01/17 09:43:50;;;;;;;;;;;5.20;99.90;;;;;;5015914;28;19992;-88
2023/01/17 09:46:28;;;;;;;;;;;5.20;99.90;;;;;;5033317;28;19909;-88
2023/01/17 09:49:35;;;;;;;;;;;5.20;99.90;;;;;;5015314;28;20389;-88
2023/01/17 09:52:01;;;;;;;;;;;5.20;99.90;;;;;;5014740;28;20359;-88
2023/01/17 09:54:31;;;;;;;;;;;5.40;99.90;;;;;;5015333;28;19995;-87
2023/01/17 09:57:02;;;;;;;;;;;5.50;99.90;;;;;;5015457;28;19949;-88
2023/01/17 09:59:32;;;;;;;;;;;5.70;99.90;;;;;;5015439;28;20363;-87
2023/01/17 10:01:58;;;;;;;;;;;6.00;99.90;;;;;;5012391;28;19933;-89
2023/01/17 10:04:26;;;;;;;;;;;6.30;99.90;;;;;;5016025;28;19913;-89
2023/01/17 10:07:10;;;;;;;;;;;6.50;99.90;;;;;;5015174;28;19917;-89
2023/01/17 10:10:08;;;;;;;;;;;6.50;99.90;;;;;;5015359;28;19909;-89
2023/01/17 10:15:57;;;;;;;;;;;6.20;99.90;;;;;;5032946;28;19928;-88
2023/01/17 10:24:58;;;;;;;;;;;;;;;;;;;;;
2023/01/17 10:27:26;;;;;;;;;;;6.80;99.90;;;;;;5008636;28;19919;-88
2023/01/17 10:30:31;;;;;;;;;;;6.90;99.90;;;;;;5015532;28;19924;-89
2023/01/17 10:33:08;;;;;;;;;;;7.10;99.90;;;;;;4928782;29;19946;-94
2023/01/17 10:35:37;;;;;;;;;;;7.20;99.90;;;;;;5114856;22;19925;-89
2023/01/17 10:38:04;;;;;;;;;;;7.20;99.90;;;;;;5012633;28;19920;-89
2023/01/17 10:40:43;;;;;;;;;;;7.30;99.90;;;;;;5009327;28;19914;-89
2023/01/17 10:43:33;;;;;;;;;;;7.20;99.90;;;;;;5012299;28;19968;-87
2023/01/17 10:45:59;;;;;;;;;;;7.10;99.90;;;;;;5011263;28;19913;-88
2023/01/17 10:48:39;;;;;;;;;;;7.00;99.90;;;;;;5011093;28;20004;-88
2023/01/17 10:51:09;;;;;;;;;;;7.00;99.90;;;;;;5011789;28;19920;-87
2023/01/17 10:53:35;;;;;;;;;;;7.20;99.90;;;;;;5010963;28;20367;-87
2023/01/17 10:56:01;;;;;;;;;;;7.30;99.90;;;;;;5011305;28;19917;-88
2023/01/17 10:58:26;;;;;;;;;;;7.80;99.90;;;;;;5004460;28;19913;-88
2023/01/17 11:01:04;;;;;;;;;;;8.10;99.90;;;;;;5011362;28;19909;-88
2023/01/17 11:03:30;;;;;;;;;;;8.30;99.90;;;;;;5008982;28;19914;-87
2023/01/17 11:06:15;;;;;;;;;;;8.40;99.90;;;;;;4992296;28;19933;-88
2023/01/17 11:08:58;;;;;;;;;;;8.60;99.90;;;;;;4992101;28;19914;-89
2023/01/17 11:33:52;;;;;;;;;;;10.70;99.90;;;;;;4950745;28;20309;-89
2023/01/17 11:36:49;;;;;;;;;;;11.10;99.90;;;;;;4976585;28;19914;-89
2023/01/17 11:42:33;;;;;;;;;;;11.40;99.90;;;;;;4974825;28;19917;-89
2023/01/17 11:45:27;;;;;;;;;;;11.40;99.90;;;;;;4975395;28;19910;-89
2023/01/17 11:48:22;;;;;;;;;;;10.90;99.90;;;;;;4975395;28;19910;-88
2023/01/17 11:54:25;;;;;;;;;;;10.00;99.90;;;;;;4935745;29;19941;-89
2023/01/17 11:57:19;;;;;;;;;;;9.40;99.90;;;;;;4919995;29;19915;-88
2023/01/17 12:06:20;;;;;;;;;;;8.60;99.90;;;;;;4871272;29;20421;-89
2023/01/17 12:08:50;;;;;;;;;;;8.40;99.90;;;;;;4863241;29;20337;-88
2023/01/17 12:11:25;;;;;;;;;;;8.30;99.90;;;;;;4885716;29;19955;-88
2023/01/17 12:14:01;;;;;;;;;;;8.30;99.90;;;;;;4967886;28;20004;-88
2023/01/17 12:16:38;;;;;;;;;;;8.10;99.90;;;;;;4974635;28;19969;-89
2023/01/17 12:19:09;;;;;;;;;;;7.90;99.90;;;;;;4988708;28;19922;-88
2023/01/17 12:22:19;;;;;;;;;;;7.70;99.90;;;;;;4975102;28;19960;-89
2023/01/17 12:25:20;;;;;;;;;;;7.50;99.90;;;;;;4976027;28;19957;-90
2023/01/17 12:27:58;;;;;;;;;;;7.40;99.90;;;;;;4974579;28;19918;-89
2023/01/17 12:30:30;;;;;;;;;;;7.30;99.90;;;;;;4974695;28;19914;-89
2023/01/17 12:32:56;;;;;;;;;;;7.30;99.90;;;;;;4974585;28;19933;-89
2023/01/17 12:35:40;;;;;;;;;;;7.40;99.90;;;;;;4973842;28;19922;-88
2023/01/17 12:38:10;;;;;;;;;;;7.50;99.90;;;;;;4988466;28;19969;-88
2023/01/17 12:40:45;;;;;;;;;;;9.30;99.90;;;;;;4973409;28;19976;-87
2023/01/17 12:43:20;;;;;;;;;;;9.70;99.90;;;;;;4973454;28;20311;-88
2023/01/17 12:45:47;;;;;;;;;;;10.00;99.90;;;;;;4972971;28;19930;-88
2023/01/17 12:48:17;;;;;;;;;;;11.10;99.90;;;;;;4973219;28;20287;-88
2023/01/17 12:50:48;;;;;;;;;;;11.10;99.90;;;;;;4973204;28;19921;-89
2023/01/17 12:53:28;;;;;;;;;;;10.60;99.90;;;;;;4973203;28;20438;-88
2023/01/17 12:55:54;;;;;;;;;;;10.00;99.90;;;;;;4976173;28;19918;-89
2023/01/17 12:58:22;;;;;;;;;;;9.30;99.90;;;;;;4973530;28;20002;-88
2023/01/17 13:06:46;;;;;;;;;;;8.10;99.90;;;;;;4975225;28;19921;-89
2023/01/17 13:09:15;;;;;;;;;;;7.90;99.90;;;;;;4971568;28;19933;-87
2023/01/17 13:12:14;;;;;;;;;;;7.80;99.90;;;;;;4954778;28;19910;-88
2023/01/17 13:15:09;;;;;;;;;;;7.60;99.90;;;;;;4965146;28;20005;-88
2023/01/17 13:20:55;;;;;;;;;;;9.20;99.90;;;;;;4973316;28;19914;-88
2023/01/17 13:23:38;;;;;;;;;;;11.50;99.90;;;;;;4973997;28;19917;-89
2023/01/17 13:26:11;;;;;;;;;;;12.30;99.90;;;;;;4973887;28;19941;-89
2023/01/17 13:28:50;;;;;;;;;;;11.80;99.90;;;;;;4973991;28;19972;-88
2023/01/17 13:31:37;;;;;;;;;;;11.00;99.90;;;;;;4973728;28;20009;-89
2023/01/17 13:34:21;;;;;;;;;;;10.40;99.90;;;;;;4979398;28;19914;-88
2023/01/17 13:45:58;;;;;;;;;;;9.30;99.90;;;;;;4974352;28;19924;-88
2023/01/17 13:48:30;;;;;;;;;;;9.10;99.90;;;;;;4973224;28;19914;-89
2023/01/17 13:50:58;;;;;;;;;;;8.80;99.90;;;;;;4972883;28;20332;-89
2023/01/17 13:53:42;;;;;;;;;;;8.50;99.90;;;;;;4972961;28;19914;-89
2023/01/17 13:56:12;;;;;;;;;;;8.30;99.90;;;;;;4973110;28;20368;-89
2023/01/17 13:58:53;;;;;;;;;;;8.20;99.90;;;;;;4953836;28;20001;-88
2023/01/17 14:01:22;;;;;;;;;;;8.00;99.90;;;;;;4966481;28;19914;-88
2023/01/17 14:03:51;;;;;;;;;;;7.90;99.90;;;;;;4972943;28;20416;-88
2023/01/17 14:06:26;;;;;;;;;;;7.90;99.90;;;;;;4972734;28;19914;-88
2023/01/17 14:08:51;;;;;;;;;;;7.90;99.90;;;;;;4972681;28;19914;-88
2023/01/17 14:11:17;;;;;;;;;;;8.00;99.90;;;;;;4972966;28;19918;-88
2023/01/17 14:13:43;;;;;;;;;;;8.10;99.90;;;;;;4972902;28;19952;-89
2023/01/17 14:16:20;;;;;;;;;;;8.10;99.90;;;;;;4972769;28;19972;-88
2023/01/17 14:18:46;;;;;;;;;;;8.10;99.90;;;;;;4972878;28;19918;-88
2023/01/17 14:21:11;;;;;;;;;;;8.10;99.90;;;;;;4972587;28;19964;-87
2023/01/17 14:23:56;;;;;;;;;;;8.10;99.90;;;;;;4972932;28;19917;-87
2023/01/17 14:26:40;;;;;;;;;;;8.00;99.90;;;;;;4974177;28;19965;-88
2023/01/17 14:29:24;;;;;;;;;;;7.90;99.90;;;;;;4972887;28;19922;-88
2023/01/17 14:31:58;;;;;;;;;;;7.70;99.90;;;;;;4973023;28;20352;-88
2023/01/17 14:34:43;;;;;;;;;;;;;;;;;;;;;
2023/01/17 14:37:14;;;;;;;;;;;7.30;99.90;;;;;;4973944;28;19918;-88
2023/01/17 14:39:44;;;;;;;;;;;7.20;99.90;;;;;;4972629;28;19965;-87
2023/01/17 14:42:12;;;;;;;;;;;7.20;99.90;;;;;;4972270;28;20265;-88
2023/01/17 14:44:37;;;;;;;;;;;7.10;99.90;;;;;;4971970;28;19915;-88
2023/01/17 14:47:03;;;;;;;;;;;7.10;99.90;;;;;;4972284;28;19980;-87
2023/01/17 14:49:29;;;;;;;;;;;7.00;99.90;;;;;;4968047;28;19914;-89
2023/01/17 14:51:58;;;;;;;;;;;6.90;99.90;;;;;;4973980;28;20394;-88
2023/01/17 14:54:24;;;;;;;;;;;6.70;99.90;;;;;;4976966;28;19921;-89
2023/01/17 14:57:20;;;;;;;;;;;6.60;99.90;;;;;;4974810;28;19918;-90
2023/01/17 15:00:06;;;;;;;;;;;6.50;99.90;;;;;;4973059;28;19918;-90
2023/01/17 15:02:42;;;;;;;;;;;6.30;99.90;;;;;;4957564;29;20423;-90
2023/01/17 15:05:11;;;;;;;;;;;6.20;99.90;;;;;;4957034;29;19933;-89
2023/01/17 15:08:06;;;;;;;;;;;6.00;99.90;;;;;;4957490;28;19911;-90
2023/01/17 15:11:20;;;;;;;;;;;5.90;99.90;;;;;;4955906;29;20007;-89
2023/01/17 15:13:49;;;;;;;;;;;5.70;99.90;;;;;;4946134;28;19915;-89
2023/01/17 20:02:15;;;;;;;;;;;1.00;99.90;;;;;;5045162;28;20410;-88
2023/01/17 20:04:41;;;;;;;;;;;1.00;99.90;;;;;;5033686;28;19968;-88
2023/01/17 20:57:58;;;;;;;;;;;0.80;99.90;;;;;;4973889;28;20299;-82
2023/01/17 21:01:04;;;;;;;;;;;0.70;99.90;;;;;;5012793;28;19972;-84
2023/01/17 21:03:56;;;;;;;;;;;0.80;99.90;;;;;;5015443;28;20279;-83
2023/01/17 21:09:43;;;;;;;;;;;0.70;99.90;;;;;;5015606;28;20294;-83
2023/01/17 21:12:30;;;;;;;;;;;0.70;99.90;;;;;;5013338;28;19910;-82
2023/01/17 21:18:13;;;;;;;;;;;0.70;99.90;;;;;;4995929;28;20008;-82
2023/01/17 21:21:05;;;;;;;;;;;0.70;99.90;;;;;;5015430;28;19910;-82
2023/01/17 21:24:18;;;;;;;;;;;;;;;;;;;;;
2023/01/17 21:27:21;;;;;;;;;;;;;;;;;;;;;
2023/01/17 21:30:12;;;;;;;;;;;0.60;99.90;;;;;;5009481;28;19920;-82
2023/01/17 21:32:52;;;;;;;;;;;0.60;99.90;;;;;;4990843;28;19914;-84
2023/01/17 21:35:26;;;;;;;;;;;0.50;99.90;;;;;;5011722;28;19913;-82
2023/01/17 21:47:40;;;;;;;;;;;0.40;99.90;;;;;;5016389;28;19917;-82
2023/01/17 21:50:28;;;;;;;;;;;;;;;;;;;;;
2023/01/17 21:53:17;;;;;;;;;;;0.40;99.90;;;;;;5013583;28;19924;-83
2023/01/17 22:05:11;;;;;;;;;;;0.30;99.90;;;;;;4971424;28;19917;-84
2023/01/17 22:33:59;;;;;;;;;;;0.30;99.90;;;;;;5012843;28;19925;-84
2023/01/17 22:39:59;;;;;;;;;;;0.30;99.90;;;;;;4972123;28;19917;-84
2023/01/17 22:48:51;;;;;;;;;;;0.30;99.90;;;;;;4922714;29;19911;-84
2023/01/17 22:55:26;;;;;;;;;;;0.20;99.90;;;;;;4876419;29;19919;-84
2023/01/17 23:01:24;;;;;;;;;;;;;;;;;;;;;
2023/01/17 23:11:37;;;;;;;;;;;0.20;99.90;;;;;;4932274;29;19911;-84
2023/01/17 23:19:32;;;;;;;;;;;0.20;99.90;;;;;;4996806;28;20808;-84
2023/01/17 23:22:23;;;;;;;;;;;0.20;99.90;;;;;;4994932;28;20303;-84
2023/01/17 23:25:01;;;;;;;;;;;0.20;99.90;;;;;;4996219;28;19910;-84
2023/01/17 23:30:45;;;;;;;;;;;0.10;99.90;;;;;;4996390;28;20009;-84
2023/01/17 23:33:23;;;;;;;;;;;0.10;99.90;;;;;;4994652;28;19945;-84
2023/01/17 23:36:11;;;;;;;;;;;0.10;99.90;;;;;;4994681;28;20000;-84
2023/01/17 23:38:45;;;;;;;;;;;0.10;99.90;;;;;;4998682;28;19957;-84
2023/01/17 23:44:22;;;;;;;;;;;0.10;99.90;;;;;;4995938;28;20386;-85
2023/01/17 23:47:06;;;;;;;;;;;0.10;99.90;;;;;;5011080;28;19914;-84
2023/01/17 23:49:51;;;;;;;;;;;0.00;99.90;;;;;;5010498;28;19933;-84
2023/01/17 23:52:28;;;;;;;;;;;0.00;99.90;;;;;;4994520;28;20013;-84
2023/01/17 23:55:20;;;;;;;;;;;0.00;99.90;;;;;;4994465;28;19921;-84
2023/01/17 23:58:05;;;;;;;;;;;0.00;99.90;;;;;;4994737;28;20149;-84
